Time;durP1;ratioP1;P1;durP2;ratioP2;P2;SDS_P1;SDS_P2;PMS_P1;PMS_P2;Temp;Humidity;BMP_temperature;BMP_pressure;BME280_temperature;BME280_humidity;BME280_pressure;Samples;Min_cycle;Max_cycle;Signal;HPM_P1;HPM_P2
2021/07/08 00:02:35;;;;;;;6.93;1.42;;;15.00;99.90;;;14.30;87.55;97842.63;5051656;28;20188;-66
2021/07/08 00:05:25;;;;;;;21.67;1.85;;;15.10;99.90;;;14.21;87.66;97836.16;5050209;28;20476;-66
2021/07/08 00:08:13;;;;;;;5.07;1.30;;;15.00;99.90;;;14.11;88.39;97832.34;5051595;28;20041;-66
2021/07/08 00:11:00;;;;;;;6.68;1.50;;;14.90;99.90;;;14.06;88.23;97835.19;5051625;28;20041;-66
2021/07/08 00:13:48;;;;;;;5.65;1.10;;;14.90;99.90;;;14.05;88.72;97838.75;5050902;28;20164;-66
2021/07/08 00:16:37;;;;;;;9.10;2.00;;;14.80;99.90;;;13.97;89.25;97833.06;5051612;28;20041;-65
2021/07/08 00:19:24;;;;;;;5.07;1.98;;;14.80;99.90;;;13.85;90.18;97833.72;5046157;28;20049;-66
2021/07/08 00:22:11;;;;;;;6.00;2.00;;;14.70;99.90;;;13.87;90.73;97827.50;5049342;28;20048;-66
2021/07/08 00:24:59;;;;;;;6.78;1.50;;;14.70;99.90;;;13.89;88.72;97827.38;5045758;28;20085;-66
2021/07/08 00:27:46;;;;;;;5.88;1.20;;;14.70;99.90;;;13.82;88.74;97829.47;5051779;28;20119;-66
2021/07/08 00:30:34;;;;;;;6.07;1.30;;;14.60;99.90;;;13.99;87.91;97842.50;5050976;28;20049;-66
2021/07/08 00:33:22;;;;;;;7.25;2.10;;;14.60;99.90;;;13.78;89.68;97838.41;5047905;28;20040;-66
2021/07/08 00:36:09;;;;;;;3.38;1.40;;;14.50;99.90;;;13.89;87.85;97843.03;5050048;28;20103;-66
2021/07/08 00:38:57;;;;;;;2.80;1.20;;;14.50;99.90;;;13.66;89.93;97836.41;5052011;28;20516;-66
2021/07/08 00:41:45;;;;;;;4.13;1.40;;;14.50;99.90;;;13.80;88.61;97840.00;5049407;28;20044;-66
2021/07/08 00:44:32;;;;;;;3.72;1.40;;;14.50;99.90;;;13.63;90.00;97831.34;5052045;28;20072;-66
2021/07/08 00:47:20;;;;;;;9.23;2.30;;;14.50;99.90;;;13.48;91.34;97826.00;5050745;28;20037;-66
2021/07/08 00:50:09;;;;;;;12.38;2.05;;;14.40;99.90;;;13.27;93.66;97829.63;5050710;28;20056;-66
2021/07/08 00:52:56;;;;;;;7.68;2.30;;;14.30;99.90;;;13.29;95.34;97836.47;5049861;28;20079;-66
2021/07/08 00:55:56;;;;;;;9.63;3.13;;;14.20;99.90;;;13.17;96.91;97839.66;5049692;28;20037;-66
2021/07/08 00:59:03;;;;;;;8.10;2.85;;;14.20;99.90;;;13.32;95.88;97835.47;5047748;28;20041;-66
2021/07/08 01:01:52;;;;;;;7.97;2.45;;;14.10;99.90;;;13.27;96.14;97832.22;5049663;28;20112;-66
2021/07/08 01:04:44;;;;;;;7.65;2.55;;;14.30;99.90;;;13.24;97.13;97832.41;5034552;28;20056;-66
2021/07/08 01:07:32;;;;;;;7.20;2.40;;;14.20;99.90;;;13.23;97.68;97830.69;5035645;28;20196;-66
2021/07/08 01:10:20;;;;;;;8.32;2.50;;;14.20;99.90;;;13.37;96.63;97836.13;5044810;28;20048;-66
2021/07/08 01:13:07;;;;;;;5.47;2.38;;;14.20;99.90;;;13.58;95.00;97822.00;5050684;28;20076;-66
2021/07/08 01:15:55;;;;;;;3.50;1.80;;;14.30;99.90;;;13.75;93.31;97828.97;5043683;28;20037;-66
2021/07/08 01:18:42;;;;;;;7.53;1.92;;;14.50;99.90;;;13.81;92.78;97833.00;5047509;28;20045;-66
2021/07/08 01:21:33;;;;;;;7.80;1.92;;;14.60;99.90;;;13.86;92.34;97822.34;5051320;28;20091;-65
2021/07/08 01:24:21;;;;;;;5.00;1.85;;;14.60;99.90;;;13.83;91.80;97819.91;5049649;28;20516;-66
2021/07/08 01:27:09;;;;;;;5.32;1.38;;;14.60;99.90;;;13.70;91.18;97811.84;5036371;28;20037;-65
2021/07/08 01:29:56;;;;;;;5.93;1.65;;;14.70;99.90;;;13.80;91.14;97816.53;5034995;28;20071;-66
2021/07/08 01:32:43;;;;;;;5.63;2.08;;;14.60;99.90;;;13.89;90.64;97811.72;5055077;28;20041;-66
2021/07/08 01:35:31;;;;;;;4.78;1.50;;;14.60;99.90;;;14.00;89.68;97806.78;5043952;28;20047;-66
2021/07/08 01:38:18;;;;;;;9.75;1.40;;;14.60;99.90;;;13.81;90.44;97815.59;5050717;28;20449;-66
2021/07/08 01:41:07;;;;;;;11.20;1.98;;;14.60;99.90;;;13.76;90.81;97809.78;5047979;28;20048;-66
2021/07/08 01:43:55;;;;;;;11.20;2.03;;;14.50;99.90;;;13.61;91.84;97807.94;5048451;28;20118;-66
2021/07/08 01:46:44;;;;;;;6.18;2.30;;;14.40;99.90;;;13.60;92.71;97814.09;5048933;28;20068;-65
2021/07/08 01:49:33;;;;;;;6.70;1.70;;;14.50;99.90;;;13.68;91.79;97806.69;5050393;28;20088;-66
2021/07/08 01:52:21;;;;;;;4.07;1.45;;;14.50;99.90;;;13.68;91.50;97824.97;5050341;28;20037;-66
2021/07/08 01:55:09;;;;;;;3.40;1.35;;;14.50;99.90;;;13.84;90.35;97816.34;5048805;28;20041;-66
2021/07/08 01:57:57;;;;;;;5.38;1.73;;;14.60;99.90;;;13.84;90.38;97822.41;5049457;28;20543;-66
2021/07/08 02:00:46;;;;;;;4.45;1.42;;;14.60;99.90;;;13.86;90.67;97814.50;5039110;28;20118;-66
2021/07/08 02:03:34;;;;;;;4.18;1.42;;;14.70;99.90;;;13.90;90.81;97809.06;5035092;28;20102;-66
2021/07/08 02:06:21;;;;;;;3.40;1.40;;;14.60;99.90;;;13.87;91.14;97797.94;5047509;28;20566;-66
2021/07/08 02:09:09;;;;;;;10.25;2.63;;;14.70;99.90;;;13.66;92.55;97794.66;5048592;28;20040;-66
2021/07/08 02:11:58;;;;;;;9.40;2.55;;;14.80;99.90;;;13.44;94.01;97793.16;5049948;28;20033;-66
2021/07/08 02:14:45;;;;;;;8.30;2.00;;;14.70;99.90;;;13.41;94.88;97787.25;5043520;28;20536;-66
2021/07/08 02:17:34;;;;;;;6.85;1.80;;;14.70;99.90;;;13.78;92.40;97787.06;5049876;28;20132;-66
2021/07/08 02:20:21;;;;;;;6.60;2.15;;;14.50;99.90;;;13.60;93.85;97786.25;5048255;28;20105;-66
2021/07/08 02:23:08;;;;;;;5.95;2.10;;;14.50;99.90;;;13.74;93.16;97782.09;5049200;28;20065;-66
2021/07/08 02:25:56;;;;;;;5.15;1.90;;;14.50;99.90;;;13.80;92.16;97780.00;5049343;28;20045;-66
2021/07/08 02:28:43;;;;;;;9.52;2.20;;;14.50;99.90;;;13.60;92.81;97785.41;5034161;28;20033;-66
2021/07/08 02:31:30;;;;;;;7.90;1.63;;;14.30;99.90;;;13.58;93.41;97784.63;5052826;28;20045;-66
2021/07/08 02:34:18;;;;;;;5.57;2.42;;;14.40;99.90;;;13.46;93.63;97790.50;5048876;28;20049;-66
2021/07/08 02:37:07;;;;;;;4.18;1.75;;;14.50;99.90;;;13.63;92.87;97782.63;5049507;28;20120;-66
2021/07/08 02:39:54;;;;;;;4.63;1.80;;;14.40;99.90;;;13.72;92.68;97784.75;5050247;28;20053;-65
2021/07/08 02:42:47;;;;;;;5.65;1.30;;;14.50;99.90;;;13.81;91.82;97786.06;5049355;28;20187;-66
2021/07/08 02:45:39;;;;;;;8.25;1.90;;;14.50;99.90;;;13.83;91.49;97789.44;5049405;28;20038;-66
2021/07/08 02:48:26;;;;;;;9.90;2.22;;;14.60;99.90;;;13.87;91.00;97803.16;5048311;28;20336;-66
2021/07/08 02:51:14;;;;;;;10.88;1.77;;;14.60;99.90;;;13.72;92.27;97805.63;5045488;28;20036;-66
2021/07/08 02:54:01;;;;;;;7.03;1.58;;;14.50;99.90;;;13.60;92.92;97799.28;5049662;28;20041;-65
2021/07/08 02:56:48;;;;;;;4.75;1.80;;;14.50;99.90;;;13.75;91.89;97797.66;5049276;28;20540;-66
2021/07/08 02:59:36;;;;;;;3.90;1.40;;;14.40;99.90;;;13.87;91.29;97797.94;5049821;28;20053;-66
2021/07/08 03:02:23;;;;;;;11.40;3.13;;;14.40;99.90;;;13.58;93.65;97806.34;5047181;28;20080;-66
2021/07/08 03:05:11;;;;;;;3.97;1.60;;;14.40;99.90;;;13.71;93.03;97805.72;5047074;28;20569;-66
2021/07/08 03:07:59;;;;;;;6.47;2.08;;;14.40;99.90;;;13.88;92.04;97810.06;5043063;28;20110;-66
2021/07/08 03:10:46;;;;;;;6.25;1.80;;;14.50;99.90;;;13.85;91.65;97816.28;5048099;28;20538;-66
2021/07/08 03:13:34;;;;;;;9.10;2.13;;;14.60;99.90;;;13.75;91.70;97812.44;5047933;28;20037;-66
2021/07/08 03:16:21;;;;;;;4.93;1.90;;;14.50;99.90;;;13.57;93.13;97799.44;5048857;28;20556;-66
2021/07/08 03:19:09;;;;;;;11.68;2.80;;;14.40;99.90;;;13.56;93.56;97795.13;5048149;28;20135;-66
2021/07/08 03:21:56;;;;;;;6.57;2.05;;;14.40;99.90;;;13.68;92.29;97803.25;5050626;28;20138;-65
2021/07/08 03:24:44;;;;;;;8.57;1.90;;;14.40;99.90;;;13.60;92.78;97807.09;5048727;28;20048;-65
2021/07/08 03:27:31;;;;;;;5.45;1.70;;;14.30;99.90;;;13.73;92.09;97816.91;5046814;28;20092;-66
2021/07/08 03:30:22;;;;;;;7.30;1.80;;;14.40;99.90;;;13.89;91.35;97816.94;5048049;28;20111;-66
2021/07/08 03:33:10;;;;;;;5.32;1.33;;;14.50;99.90;;;13.82;91.53;97816.41;5048353;28;20099;-66
2021/07/08 03:35:57;;;;;;;5.63;1.98;;;14.60;99.90;;;13.58;93.78;97819.38;5047699;28;20477;-66
2021/07/08 03:38:45;;;;;;;8.38;1.63;;;14.60;99.90;;;13.67;93.37;97819.84;5048967;28;20504;-66
2021/07/08 03:41:32;;;;;;;4.78;1.60;;;14.60;99.90;;;13.88;92.10;97821.34;5048301;28;20044;-66
2021/07/08 03:44:20;;;;;;;7.47;2.10;;;14.60;99.90;;;13.75;91.94;97818.53;5033106;28;20033;-66
2021/07/08 03:47:07;;;;;;;7.80;2.22;;;14.60;99.90;;;13.69;93.16;97811.00;5048139;28;20044;-65
2021/07/08 03:49:55;;;;;;;6.28;1.90;;;14.50;99.90;;;13.89;92.24;97806.50;5048573;28;20052;-66
2021/07/08 03:52:44;;;;;;;6.97;2.30;;;14.60;99.90;;;13.94;92.02;97809.75;5049091;28;20045;-66
2021/07/08 03:55:33;;;;;;;9.02;2.50;;;14.60;99.90;;;13.80;92.66;97793.03;5051061;28;20493;-66
2021/07/08 03:58:20;;;;;;;11.48;2.70;;;14.60;99.90;;;13.64;94.09;97788.69;5051143;28;20531;-66
2021/07/08 04:01:08;;;;;;;13.52;2.90;;;14.50;99.90;;;13.55;95.12;97795.25;5051449;28;20060;-66
2021/07/08 04:03:55;;;;;;;8.38;2.80;;;14.40;99.90;;;13.50;95.93;97799.81;5050794;28;20048;-66
2021/07/08 04:06:43;;;;;;;10.55;2.63;;;14.30;99.90;;;13.65;96.08;97795.59;5051986;28;20044;-66
2021/07/08 04:09:30;;;;;;;6.90;2.00;;;14.40;99.90;;;13.92;94.91;97794.16;5053291;28;20557;-64
2021/07/08 04:12:17;;;;;;;8.38;2.22;;;14.60;99.90;;;13.86;95.42;97794.47;5050428;28;20041;-64
2021/07/08 04:15:06;;;;;;;6.60;2.55;;;14.60;99.90;;;13.89;95.64;97790.84;5051979;28;20111;-64
2021/07/08 04:17:54;;;;;;;10.10;2.85;;;14.60;99.90;;;13.82;95.32;97782.50;5050937;28;21332;-64
2021/07/08 04:20:43;;;;;;;11.32;2.58;;;14.60;99.90;;;13.84;95.41;97790.25;5053205;28;20037;-64
2021/07/08 04:23:30;;;;;;;12.88;2.63;;;14.60;99.90;;;13.87;95.25;97798.78;5052734;28;20459;-64
2021/07/08 04:26:18;;;;;;;11.23;3.05;;;14.70;99.90;;;13.99;95.05;97800.75;5050788;28;20465;-64
2021/07/08 04:29:05;;;;;;;13.45;2.65;;;14.80;99.90;;;14.07;94.80;97808.19;5051458;28;20125;-64
2021/07/08 04:31:53;;;;;;;7.22;2.33;;;14.80;99.90;;;14.17;94.41;97816.34;5045693;28;20443;-64
2021/07/08 04:34:41;;;;;;;7.32;1.85;;;14.90;99.90;;;14.09;94.84;97814.13;5050413;28;20053;-64
2021/07/08 04:37:29;;;;;;;5.70;1.85;;;14.90;99.90;;;14.13;94.13;97814.84;5048096;28;20129;-64
2021/07/08 04:40:19;;;;;;;11.00;1.85;;;14.90;99.90;;;14.13;93.56;97807.00;5052689;28;20057;-64
2021/07/08 04:43:09;;;;;;;6.97;2.42;;;14.80;99.90;;;13.98;94.72;97817.34;5051281;28;20163;-64
2021/07/08 04:45:56;;;;;;;10.23;1.80;;;14.80;99.90;;;14.03;95.44;97819.69;5048377;28;20172;-64
2021/07/08 04:48:44;;;;;;;14.00;2.60;;;14.90;99.90;;;14.26;94.24;97815.03;5051382;28;20060;-64
2021/07/08 04:51:31;;;;;;;12.50;2.58;;;15.00;99.90;;;14.26;93.92;97802.81;5051410;28;20158;-64
2021/07/08 04:54:19;;;;;;;14.63;2.90;;;15.20;99.90;;;14.26;94.51;97807.19;5051505;28;20094;-64
2021/07/08 04:57:06;;;;;;;4.88;1.80;;;15.10;99.90;;;14.34;94.77;97815.44;5053041;28;20064;-64
2021/07/08 04:59:53;;;;;;;10.55;1.98;;;15.30;99.90;;;14.52;94.40;97814.44;5036281;28;20049;-65
2021/07/08 05:02:42;;;;;;;4.22;1.70;;;15.40;99.90;;;14.71;94.58;97811.72;5048098;28;20095;-65
2021/07/08 05:05:29;;;;;;;9.10;2.20;;;15.60;99.90;;;14.82;93.82;97808.47;5051471;28;20048;-64
2021/07/08 05:08:16;;;;;;;5.90;1.80;;;15.80;99.90;;;14.96;93.05;97819.03;5051636;28;20041;-65
2021/07/08 05:11:04;;;;;;;9.23;2.00;;;15.90;99.90;;;15.03;92.35;97814.28;5047774;28;20042;-65
2021/07/08 05:13:51;;;;;;;4.75;1.40;;;16.00;99.90;;;15.35;91.25;97807.19;5050220;28;20115;-65
2021/07/08 05:16:38;;;;;;;5.97;1.45;;;16.20;99.90;;;15.57;90.78;97809.38;5035472;28;20057;-65
2021/07/08 05:19:26;;;;;;;3.35;1.20;;;16.50;99.90;;;15.84;90.53;97816.56;5049884;28;20501;-65
2021/07/08 05:22:17;;;;;;;8.52;1.40;;;16.70;99.90;;;16.03;88.89;97808.44;5049463;28;20076;-65
2021/07/08 05:25:06;;;;;;;8.07;1.45;;;17.00;99.90;;;16.31;88.04;97804.97;5045221;28;20085;-65
2021/07/08 05:27:54;;;;;;;4.82;1.10;;;17.20;99.90;;;16.63;87.16;97807.34;5050501;28;20063;-65
2021/07/08 05:30:42;;;;;;;4.10;1.30;;;17.60;99.90;;;16.97;86.47;97803.44;5046446;28;20087;-65
2021/07/08 05:33:29;;;;;;;8.65;1.17;;;17.90;99.90;;;17.17;86.39;97803.91;5046842;28;20110;-65
2021/07/08 05:36:17;;;;;;;5.63;1.20;;;18.20;99.90;;;17.22;86.25;97812.28;5021206;28;20042;-65
2021/07/08 05:39:05;;;;;;;3.45;1.38;;;18.30;99.90;;;17.24;85.05;97815.66;5047189;28;20069;-65
2021/07/08 05:41:52;;;;;;;7.05;1.27;;;18.30;99.90;;;17.30;84.54;97813.47;5050518;28;20052;-65
2021/07/08 05:44:39;;;;;;;4.57;1.17;;;18.30;99.90;;;17.32;84.38;97821.25;5049290;28;20045;-65
2021/07/08 05:47:27;;;;;;;5.78;1.17;;;18.30;99.90;;;17.31;83.22;97824.81;5048677;28;20067;-65
2021/07/08 05:50:15;;;;;;;4.85;1.20;;;18.30;99.90;;;17.37;82.56;97826.19;5047571;28;20108;-65
2021/07/08 05:53:03;;;;;;;8.80;1.42;;;18.30;99.90;;;17.39;82.70;97830.41;5048578;28;20041;-65
2021/07/08 05:55:50;;;;;;;5.63;1.02;;;18.40;99.90;;;17.42;82.13;97847.72;5045603;28;20037;-65
2021/07/08 05:58:38;;;;;;;5.22;1.20;;;18.40;99.90;;;17.55;82.64;97853.84;5047226;28;20068;-65
2021/07/08 06:01:25;;;;;;;3.60;1.00;;;18.40;99.90;;;17.83;81.96;97859.88;5049385;28;20059;-65
2021/07/08 06:04:12;;;;;;;3.85;0.90;;;18.50;99.90;;;18.07;81.33;97860.84;5035057;28;20518;-65
2021/07/08 06:07:00;;;;;;;4.03;0.95;;;18.60;99.90;;;18.18;80.62;97870.63;5050134;28;20033;-65
2021/07/08 06:09:47;;;;;;;4.97;0.93;;;18.70;99.90;;;18.22;80.30;97866.00;5050103;28;20572;-65
2021/07/08 06:12:35;;;;;;;6.15;1.13;;;18.80;99.90;;;18.16;80.36;97862.84;5047131;28;20512;-65
2021/07/08 06:15:22;;;;;;;3.17;1.10;;;18.80;99.90;;;18.25;79.93;97864.00;5043306;28;20044;-65
2021/07/08 06:18:09;;;;;;;4.97;0.82;;;18.80;99.90;;;18.11;79.96;97869.34;5049405;28;20041;-65
2021/07/08 06:20:57;;;;;;;4.97;1.30;;;18.80;99.90;;;18.06;81.08;97864.41;5050133;28;20191;-65
2021/07/08 06:23:44;;;;;;;3.72;1.20;;;18.80;99.90;;;17.94;81.34;97862.63;5045895;28;20524;-65
2021/07/08 06:26:31;;;;;;;6.03;1.35;;;18.70;99.90;;;17.84;81.90;97865.06;5047772;28;20206;-65
2021/07/08 06:29:19;;;;;;;3.55;1.20;;;18.70;99.90;;;17.97;83.19;97862.41;5048767;28;20096;-65
2021/07/08 06:32:06;;;;;;;6.55;1.35;;;18.80;99.90;;;17.63;83.40;97869.94;5048083;28;20045;-65
2021/07/08 06:34:54;;;;;;;6.47;1.48;;;18.70;99.90;;;17.57;82.97;97870.31;5033467;28;20048;-65
2021/07/08 06:37:41;;;;;;;6.53;1.75;;;18.60;99.90;;;17.58;84.04;97868.53;5048936;28;20049;-65
2021/07/08 06:40:28;;;;;;;4.55;1.15;;;18.50;99.90;;;17.59;84.18;97870.25;5030712;28;20523;-65
2021/07/08 06:43:16;;;;;;;3.17;0.90;;;18.60;99.90;;;17.77;82.62;97863.75;5046541;28;20044;-65
2021/07/08 06:46:04;;;;;;;2.80;1.10;;;18.70;99.90;;;17.63;82.64;97872.56;5047979;28;20041;-65
2021/07/08 07:49:58;;;;;;;5.40;1.60;;;21.50;99.90;;;19.84;73.55;97892.94;5041547;28;20131;-66
2021/07/08 07:52:46;;;;;;;4.05;1.00;;;21.50;99.90;;;20.36;72.35;97898.66;5046245;28;20094;-65
2021/07/08 07:55:33;;;;;;;6.72;1.33;;;21.30;99.90;;;20.38;72.42;97900.22;5049235;28;20489;-65
2021/07/08 07:58:21;;;;;;;5.07;1.23;;;21.40;99.90;;;20.27;72.24;97916.03;5050189;28;20500;-65
2021/07/08 08:01:08;;;;;;;5.47;1.73;;;21.30;99.90;;;20.19;72.53;97918.44;5047278;28;20041;-65
2021/07/08 08:03:57;;;;;;;2.75;1.27;;;21.30;99.90;;;20.39;72.31;97920.38;5051572;28;20183;-65
2021/07/08 08:09:50;;;;;;;3.53;1.35;;;21.10;99.90;;;20.36;72.50;97930.31;5051795;28;20124;-65
2021/07/08 08:12:39;;;;;;;5.30;1.40;;;21.10;99.90;;;20.20;72.62;97931.47;5052171;28;20535;-65
2021/07/08 08:15:31;;;;;;;6.18;1.77;;;21.10;99.90;;;20.34;72.28;97935.69;5048496;28;20052;-65
2021/07/08 08:18:20;;;;;;;3.72;1.42;;;21.00;99.90;;;20.54;71.72;97934.16;5050017;28;20138;-65
2021/07/08 08:21:07;;;;;;;4.22;1.65;;;21.00;99.90;;;20.45;72.39;97940.97;5035875;28;20102;-65
2021/07/08 08:23:55;;;;;;;5.60;1.45;;;21.00;99.90;;;20.40;73.69;97940.50;5050410;28;20120;-65
2021/07/08 08:26:42;;;;;;;3.88;1.38;;;20.90;99.90;;;20.29;74.37;97934.38;5051061;28;20102;-65
2021/07/08 08:29:20;;;;;;;4.72;1.30;;;20.90;99.90;;;20.18;75.52;97927.28;5033456;28;20523;-65
2021/07/08 08:31:48;;;;;;;3.50;1.15;;;20.90;99.90;;;19.82;77.94;97943.13;5033514;28;20068;-65
2021/07/08 08:34:15;;;;;;;2.38;1.25;;;20.90;99.90;;;19.74;77.64;97939.38;5058285;28;20049;-65
2021/07/08 08:37:03;;;;;;;5.95;1.45;;;20.80;99.90;;;18.91;82.58;97950.59;5034837;28;20508;-66
2021/07/08 08:39:50;;;;;;;4.53;1.10;;;20.50;99.90;;;19.19;82.32;97954.75;5036671;28;20531;-65
2021/07/08 08:42:38;;;;;;;3.10;1.20;;;20.20;99.90;;;19.02;82.75;97959.41;5051014;28;20122;-65
2021/07/08 08:45:25;;;;;;;4.65;1.38;;;20.10;99.90;;;18.96;83.42;97959.84;5051013;28;20513;-65
2021/07/08 08:48:12;;;;;;;3.28;1.33;;;20.10;99.90;;;18.80;85.04;97967.13;5050415;28;20037;-65
2021/07/08 08:51:00;;;;;;;7.68;1.30;;;19.90;99.90;;;18.51;86.36;97967.31;5050050;28;20040;-65
2021/07/08 08:53:47;;;;;;;3.35;1.00;;;19.60;99.90;;;18.20;86.17;97971.22;5050912;28;20068;-65
2021/07/08 08:56:35;;;;;;;2.40;0.95;;;19.40;99.90;;;17.84;88.64;97961.38;5051057;28;20373;-65
2021/07/08 08:59:22;;;;;;;2.17;0.85;;;19.10;99.90;;;17.59;89.47;97968.19;5052478;28;20072;-65
2021/07/08 09:02:20;;;;;;;3.90;1.00;;;18.90;99.90;;;17.32;90.23;97960.31;5049369;28;20053;-65
2021/07/08 09:05:18;;;;;;;2.42;1.02;;;18.60;99.90;;;17.66;90.56;97963.38;5046639;28;20563;-65
2021/07/08 09:08:21;;;;;;;3.47;1.13;;;18.60;99.90;;;17.19;94.37;97959.41;5047206;28;20123;-65
2021/07/08 09:11:21;;;;;;;4.47;0.88;;;18.40;99.90;;;17.38;93.13;97961.69;5046914;28;20048;-65
2021/07/08 09:14:10;;;;;;;2.10;1.00;;;18.30;99.90;;;17.26;94.36;97961.53;5041367;28;20052;-65
2021/07/08 09:16:58;;;;;;;7.00;2.17;;;18.20;99.90;;;16.95;96.13;97959.19;5041814;28;20050;-65
2021/07/08 09:19:47;;;;;;;4.53;1.75;;;18.20;99.90;;;16.70;97.35;97963.28;5041190;28;20045;-65
2021/07/08 09:22:34;;;;;;;3.85;1.60;;;18.10;99.90;;;16.75;98.90;97963.84;5020439;28;20045;-65
2021/07/08 09:25:26;;;;;;;4.97;1.90;;;17.90;99.90;;;16.92;97.88;97960.19;5047343;28;20033;-65
2021/07/08 09:28:26;;;;;;;4.65;1.92;;;17.80;99.90;;;16.73;98.32;97969.16;5051021;28;20036;-65
2021/07/08 09:31:14;;;;;;;5.72;2.80;;;17.70;99.90;;;16.61;99.89;97967.28;5044535;28;20046;-65
2021/07/08 09:34:29;;;;;;;6.25;2.83;;;17.50;99.90;;;16.38;100.00;97968.69;5038984;28;20041;-65
2021/07/08 09:37:29;;;;;;;4.80;2.70;;;17.60;99.90;;;16.27;100.00;97984.19;5036879;28;20060;-65
2021/07/08 09:40:20;;;;;;;6.88;2.60;;;17.40;99.90;;;16.30;100.00;97987.47;5044361;28;20053;-65
2021/07/08 09:43:08;;;;;;;2.88;1.52;;;17.40;99.90;;;16.18;100.00;97998.69;5034339;28;20548;-66
2021/07/08 09:45:55;;;;;;;4.32;2.35;;;17.20;99.90;;;15.89;100.00;98014.28;5047691;28;20053;-64
2021/07/08 09:49:21;;;;;;;3.72;2.08;;;17.00;99.90;;;15.76;100.00;97995.00;5040025;28;20033;-65
2021/07/08 09:52:10;;;;;;;4.45;2.50;;;16.80;99.90;;;15.81;100.00;98002.59;4990721;28;20062;-65
2021/07/08 09:57:49;;;;;;;4.45;1.52;;;16.70;99.90;;;15.73;100.00;98008.25;5042924;28;20059;-65
2021/07/08 10:00:37;;;;;;;4.00;1.48;;;16.60;99.90;;;15.80;100.00;98011.34;5044995;28;20085;-65
2021/07/08 10:03:25;;;;;;;2.22;1.30;;;16.60;99.90;;;15.79;100.00;98007.91;5048094;28;20540;-66
2021/07/08 10:06:13;;;;;;;3.92;1.30;;;16.60;99.90;;;15.84;100.00;98013.72;5047314;28;20048;-65
2021/07/08 10:09:00;;;;;;;7.53;2.28;;;16.60;99.90;;;15.76;100.00;98018.56;5045225;28;20041;-65
2021/07/08 10:11:56;;;;;;;3.00;1.48;;;16.70;99.90;;;16.03;100.00;98016.13;5046940;28;20041;-65
2021/07/08 10:14:45;;;;;;;6.82;1.88;;;16.70;99.90;;;16.13;100.00;98015.59;5045958;28;20052;-65
2021/07/08 10:17:35;;;;;;;2.60;1.35;;;16.90;99.90;;;15.92;100.00;98005.44;5030969;28;20045;-65
2021/07/08 10:20:22;;;;;;;3.90;1.60;;;16.90;99.90;;;15.94;100.00;98005.31;5045568;28;20114;-65
2021/07/08 10:23:11;;;;;;;2.08;1.30;;;16.80;99.90;;;15.71;100.00;98002.25;5048380;28;20040;-65
2021/07/08 10:26:00;;;;;;;3.22;1.35;;;16.70;99.90;;;15.89;100.00;98001.19;5048526;28;20126;-66
2021/07/08 10:29:00;;;;;;;4.82;1.73;;;16.70;99.90;;;15.84;100.00;98005.03;5039683;28;20119;-66
2021/07/08 10:31:50;;;;;;;4.00;2.03;;;16.70;99.90;;;15.69;100.00;97991.00;5036800;28;20124;-66
2021/07/08 10:34:44;;;;;;;6.28;2.30;;;16.70;99.90;;;15.63;100.00;98001.81;5045394;28;20045;-66
2021/07/08 10:37:43;;;;;;;2.97;1.75;;;16.70;99.90;;;15.63;100.00;97999.19;5046610;28;20048;-66
2021/07/08 10:40:32;;;;;;;7.30;2.10;;;16.70;99.90;;;15.74;100.00;97988.16;5033061;28;20052;-66
2021/07/08 10:43:43;;;;;;;4.07;1.52;;;16.70;99.90;;;15.96;100.00;97985.13;5047204;28;20382;-65
2021/07/08 10:46:50;;;;;;;3.15;1.23;;;16.70;99.90;;;16.04;100.00;97975.91;5045340;28;20033;-67
2021/07/08 10:49:40;;;;;;;3.05;1.10;;;16.80;99.90;;;16.06;100.00;97979.28;5032681;28;20508;-66
2021/07/08 10:52:46;;;;;;;3.05;1.30;;;16.90;99.90;;;16.41;100.00;97970.28;5047911;28;20048;-66
2021/07/08 10:55:40;;;;;;;2.83;1.08;;;17.10;99.90;;;16.38;99.34;97965.22;5028210;28;20052;-66
2021/07/08 10:58:38;;;;;;;1.52;0.93;;;17.30;99.90;;;16.48;98.66;97961.94;5043036;28;20051;-66
2021/07/08 11:01:28;;;;;;;2.10;0.80;;;17.40;99.90;;;16.94;99.67;97958.31;5048552;28;20037;-65
2021/07/08 11:04:56;;;;;;;1.95;1.00;;;17.60;99.90;;;16.27;98.54;97966.69;5035833;28;20497;-66
2021/07/08 11:07:49;;;;;;;5.10;1.08;;;17.70;99.90;;;16.63;98.14;97967.22;5052958;28;20063;-66
2021/07/08 11:10:37;;;;;;;2.05;1.00;;;17.60;99.90;;;16.63;99.48;97970.66;5052724;28;20066;-66
2021/07/08 11:13:29;;;;;;;1.88;1.00;;;17.60;99.90;;;16.68;99.50;97979.09;5051125;28;20495;-65
2021/07/08 11:16:44;;;;;;;4.63;1.00;;;17.70;99.90;;;17.00;98.87;97975.47;5051310;28;20248;-65
2021/07/08 11:19:36;;;;;;;2.20;0.90;;;17.80;99.90;;;16.83;96.70;97968.63;5052889;28;20048;-65
2021/07/08 11:22:26;;;;;;;1.52;0.93;;;17.90;99.90;;;16.75;95.90;97968.25;5036856;28;20040;-65
2021/07/08 11:25:14;;;;;;;3.15;0.90;;;18.00;99.90;;;16.79;92.75;97964.50;5030574;28;20512;-66
2021/07/08 11:28:26;;;;;;;2.78;0.80;;;18.20;99.90;;;17.01;93.60;97958.78;5032830;28;20118;-66
2021/07/08 11:31:13;;;;;;;1.75;0.95;;;18.30;99.90;;;17.11;94.82;97962.53;5055148;28;20048;-66
2021/07/08 11:34:01;;;;;;;1.88;0.93;;;18.30;99.90;;;17.44;92.25;97959.50;5046532;28;20039;-66
2021/07/08 11:36:51;;;;;;;3.30;1.30;;;18.40;99.90;;;17.69;92.17;97956.13;5051807;28;20045;-66
2021/07/08 11:39:41;;;;;;;2.47;1.00;;;18.50;99.90;;;18.38;91.31;97956.81;5048500;28;20583;-65
2021/07/08 11:42:34;;;;;;;3.67;0.90;;;19.00;99.90;;;18.45;91.67;97953.75;5034989;28;20414;-65
2021/07/08 11:45:23;;;;;;;;;;;19.40;99.90;;;18.35;90.59;97951.75;5050132;28;20131;-66
2021/07/08 11:48:11;;;;;;;1.58;0.70;;;19.70;99.90;;;18.33;89.12;97950.19;5049808;28;19921;-66
2021/07/08 11:50:59;;;;;;;2.75;0.82;;;19.80;99.90;;;18.58;91.32;97952.81;5051163;28;20061;-66
2021/07/08 11:53:50;;;;;;;3.63;0.85;;;19.90;99.90;;;18.83;88.55;97943.25;5049067;28;20044;-65
2021/07/08 11:56:37;;;;;;;4.50;1.35;;;20.10;99.90;;;18.71;89.64;97944.91;5051503;28;20497;-66
2021/07/08 11:59:24;;;;;;;2.83;1.25;;;20.30;99.90;;;18.60;89.99;97945.66;5051025;28;20052;-66
2021/07/08 12:02:12;;;;;;;3.08;0.95;;;20.20;99.90;;;18.55;90.46;97941.66;5035274;28;20124;-65
2021/07/08 12:05:17;;;;;;;2.97;1.35;;;19.90;99.90;;;18.35;90.49;97936.00;5051289;28;20524;-66
2021/07/08 12:08:06;;;;;;;3.15;1.30;;;19.60;99.90;;;18.24;91.00;97932.41;5036922;28;20044;-66
2021/07/08 12:11:36;;;;;;;4.15;1.40;;;19.40;99.90;;;18.09;89.92;97937.78;5039029;28;20065;-65
2021/07/08 12:14:16;;;;;;;4.68;1.50;;;19.40;99.90;;;18.16;89.84;97939.03;5045986;28;20509;-65
2021/07/08 12:17:06;;;;;;;3.35;1.70;;;19.50;99.90;;;18.32;91.20;97940.63;5051851;28;20041;-65
2021/07/08 12:20:10;;;;;;;2.92;1.80;;;19.50;99.90;;;17.55;89.66;97946.53;5049824;28;20041;-65
2021/07/08 12:23:08;;;;;;;3.65;1.60;;;19.40;99.90;;;17.80;90.18;97939.69;5049728;28;20083;-66
2021/07/08 12:25:55;;;;;;;5.18;2.03;;;19.30;99.90;;;17.73;88.86;97949.75;5035539;28;20045;-65
2021/07/08 12:28:43;;;;;;;2.40;1.70;;;19.40;99.90;;;17.83;89.54;97954.41;5050350;28;20040;-65
2021/07/08 12:31:53;;;;;;;6.90;2.20;;;19.40;99.90;;;18.09;88.53;97953.53;5049033;28;20433;-65
2021/07/08 12:34:57;;;;;;;3.17;1.42;;;19.50;99.90;;;17.58;88.26;97960.41;5048115;28;20087;-65
2021/07/08 12:37:44;;;;;;;4.00;1.85;;;19.70;99.90;;;17.77;88.68;97955.66;5049597;28;20360;-66
2021/07/08 12:40:32;;;;;;;3.53;1.95;;;19.70;99.90;;;18.03;88.01;97956.56;5050340;28;20485;-65
2021/07/08 12:43:19;;;;;;;3.30;1.92;;;19.60;99.90;;;17.90;88.15;97963.56;5044206;28;20470;-65
2021/07/08 12:46:10;;;;;;;3.50;1.77;;;19.80;99.90;;;17.69;89.98;97971.06;5026648;28;20052;-66
2021/07/08 12:48:58;;;;;;;3.42;1.83;;;19.80;99.90;;;17.64;89.11;97976.59;5046716;28;20075;-65
2021/07/08 12:51:47;;;;;;;2.75;1.20;;;19.70;99.90;;;17.50;89.96;97974.03;5049328;28;20484;-66
2021/07/08 12:54:35;;;;;;;3.40;1.60;;;19.40;99.90;;;17.66;90.36;97958.13;5029463;28;20056;-65
2021/07/08 12:57:22;;;;;;;2.95;1.60;;;19.30;99.90;;;17.47;89.72;97972.44;5045021;28;20126;-65
2021/07/08 13:00:10;;;;;;;4.18;1.63;;;19.30;99.90;;;17.59;87.61;97973.44;5049778;28;20049;-65